sensor_id;sensor_type;location;lat;lon;timestamp;temperature;humidity
12156;DHT22;6141;49.092;8.516;2024-02-26T00:00:19;10.10;17.30
12156;DHT22;6141;49.092;8.516;2024-02-26T00:02:47;9.90;17.90
12156;DHT22;6141;49.092;8.516;2024-02-26T00:05:15;9.80;19.00
12156;DHT22;6141;49.092;8.516;2024-02-26T00:07:45;9.60;19.20
12156;DHT22;6141;49.092;8.516;2024-02-26T00:10:14;9.50;19.60
12156;DHT22;6141;49.092;8.516;2024-02-26T00:12:42;9.30;20.30
12156;DHT22;6141;49.092;8.516;2024-02-26T00:15:10;9.30;21.30
12156;DHT22;6141;49.092;8.516;2024-02-26T00:17:39;9.20;21.80
12156;DHT22;6141;49.092;8.516;2024-02-26T00:20:09;9.20;21.20
12156;DHT22;6141;49.092;8.516;2024-02-26T00:22:38;9.10;21.70
12156;DHT22;6141;49.092;8.516;2024-02-26T00:25:07;9.10;21.70
12156;DHT22;6141;49.092;8.516;2024-02-26T00:27:36;9.00;21.60
12156;DHT22;6141;49.092;8.516;2024-02-26T00:30:07;9.00;21.70
12156;DHT22;6141;49.092;8.516;2024-02-26T00:32:35;9.10;22.30
12156;DHT22;6141;49.092;8.516;2024-02-26T00:35:04;9.10;21.20
12156;DHT22;6141;49.092;8.516;2024-02-26T00:37:32;9.20;21.30
12156;DHT22;6141;49.092;8.516;2024-02-26T00:40:00;9.20;20.50
12156;DHT22;6141;49.092;8.516;2024-02-26T00:42:30;9.20;21.90
12156;DHT22;6141;49.092;8.516;2024-02-26T00:44:58;9.10;21.70
12156;DHT22;6141;49.092;8.516;2024-02-26T00:47:26;9.00;21.60
12156;DHT22;6141;49.092;8.516;2024-02-26T00:49:55;8.90;21.60
12156;DHT22;6141;49.092;8.516;2024-02-26T00:52:23;8.90;21.60
12156;DHT22;6141;49.092;8.516;2024-02-26T00:54:51;8.80;22.80
12156;DHT22;6141;49.092;8.516;2024-02-26T00:57:19;8.80;23.10
12156;DHT22;6141;49.092;8.516;2024-02-26T00:59:49;8.80;24.10
12156;DHT22;6141;49.092;8.516;2024-02-26T01:02:17;8.80;24.20
12156;DHT22;6141;49.092;8.516;2024-02-26T01:04:46;9.00;24.00
12156;DHT22;6141;49.092;8.516;2024-02-26T01:07:14;9.10;26.20
12156;DHT22;6141;49.092;8.516;2024-02-26T01:09:42;9.40;27.00
12156;DHT22;6141;49.092;8.516;2024-02-26T01:12:10;9.70;26.00
12156;DHT22;6141;49.092;8.516;2024-02-26T01:14:39;9.80;25.50
12156;DHT22;6141;49.092;8.516;2024-02-26T01:17:08;9.90;25.20
12156;DHT22;6141;49.092;8.516;2024-02-26T01:19:36;10.00;24.40
12156;DHT22;6141;49.092;8.516;2024-02-26T01:22:04;10.10;25.00
12156;DHT22;6141;49.092;8.516;2024-02-26T01:24:33;9.80;27.00
12156;DHT22;6141;49.092;8.516;2024-02-26T01:27:01;9.90;25.90
12156;DHT22;6141;49.092;8.516;2024-02-26T01:29:29;10.00;26.70
12156;DHT22;6141;49.092;8.516;2024-02-26T01:31:57;10.00;26.90
12156;DHT22;6141;49.092;8.516;2024-02-26T01:34:27;9.90;28.40
12156;DHT22;6141;49.092;8.516;2024-02-26T01:36:55;9.50;31.00
12156;DHT22;6141;49.092;8.516;2024-02-26T01:39:23;9.20;28.70
12156;DHT22;6141;49.092;8.516;2024-02-26T01:41:52;9.30;28.90
12156;DHT22;6141;49.092;8.516;2024-02-26T01:44:20;9.10;32.20
12156;DHT22;6141;49.092;8.516;2024-02-26T01:46:48;8.90;34.60
12156;DHT22;6141;49.092;8.516;2024-02-26T01:49:17;8.90;34.80
12156;DHT22;6141;49.092;8.516;2024-02-26T01:51:46;8.80;34.70
12156;DHT22;6141;49.092;8.516;2024-02-26T01:54:15;8.40;41.50
12156;DHT22;6141;49.092;8.516;2024-02-26T01:56:43;8.20;41.40
12156;DHT22;6141;49.092;8.516;2024-02-26T01:59:12;8.30;43.50
12156;DHT22;6141;49.092;8.516;2024-02-26T02:01:42;8.40;41.10
12156;DHT22;6141;49.092;8.516;2024-02-26T02:04:12;8.50;41.10
12156;DHT22;6141;49.092;8.516;2024-02-26T02:06:41;8.70;40.90
12156;DHT22;6141;49.092;8.516;2024-02-26T02:09:12;8.50;41.40
12156;DHT22;6141;49.092;8.516;2024-02-26T02:11:40;8.50;40.90
12156;DHT22;6141;49.092;8.516;2024-02-26T02:14:08;8.60;41.10
12156;DHT22;6141;49.092;8.516;2024-02-26T02:16:36;8.50;43.60
12156;DHT22;6141;49.092;8.516;2024-02-26T02:19:04;8.40;44.20
12156;DHT22;6141;49.092;8.516;2024-02-26T02:21:34;8.30;45.60
12156;DHT22;6141;49.092;8.516;2024-02-26T02:24:02;8.10;44.90
12156;DHT22;6141;49.092;8.516;2024-02-26T02:26:30;8.10;46.20
12156;DHT22;6141;49.092;8.516;2024-02-26T02:28:59;8.10;47.70
12156;DHT22;6141;49.092;8.516;2024-02-26T02:31:27;8.10;46.90
12156;DHT22;6141;49.092;8.516;2024-02-26T02:33:56;8.20;45.70
12156;DHT22;6141;49.092;8.516;2024-02-26T02:36:25;8.50;44.30
12156;DHT22;6141;49.092;8.516;2024-02-26T02:38:54;8.50;44.30
12156;DHT22;6141;49.092;8.516;2024-02-26T02:41:23;8.60;46.80
12156;DHT22;6141;49.092;8.516;2024-02-26T02:43:53;8.60;46.10
12156;DHT22;6141;49.092;8.516;2024-02-26T02:46:21;8.20;45.50
12156;DHT22;6141;49.092;8.516;2024-02-26T02:48:49;8.10;43.90
12156;DHT22;6141;49.092;8.516;2024-02-26T02:51:17;8.10;47.60
12156;DHT22;6141;49.092;8.516;2024-02-26T02:53:46;8.00;47.40
12156;DHT22;6141;49.092;8.516;2024-02-26T02:56:15;7.80;48.40
12156;DHT22;6141;49.092;8.516;2024-02-26T02:58:43;8.00;49.40
12156;DHT22;6141;49.092;8.516;2024-02-26T03:01:13;8.00;50.50
12156;DHT22;6141;49.092;8.516;2024-02-26T03:03:41;8.30;50.10
12156;DHT22;6141;49.092;8.516;2024-02-26T03:06:09;8.50;47.70
12156;DHT22;6141;49.092;8.516;2024-02-26T03:08:37;8.80;46.10
12156;DHT22;6141;49.092;8.516;2024-02-26T03:11:06;9.00;44.80
12156;DHT22;6141;49.092;8.516;2024-02-26T03:13:36;8.80;44.10
12156;DHT22;6141;49.092;8.516;2024-02-26T03:16:05;8.70;46.20
12156;DHT22;6141;49.092;8.516;2024-02-26T03:18:33;8.70;48.10
12156;DHT22;6141;49.092;8.516;2024-02-26T03:21:03;8.50;48.20
12156;DHT22;6141;49.092;8.516;2024-02-26T03:23:31;8.50;48.40
12156;DHT22;6141;49.092;8.516;2024-02-26T03:26:03;8.70;49.20
12156;DHT22;6141;49.092;8.516;2024-02-26T03:28:32;8.80;47.70
12156;DHT22;6141;49.092;8.516;2024-02-26T03:31:02;8.80;46.70
12156;DHT22;6141;49.092;8.516;2024-02-26T03:33:31;8.80;46.80
12156;DHT22;6141;49.092;8.516;2024-02-26T03:35:59;8.80;47.70
12156;DHT22;6141;49.092;8.516;2024-02-26T03:38:28;9.00;45.40
12156;DHT22;6141;49.092;8.516;2024-02-26T03:40:56;9.20;44.80
12156;DHT22;6141;49.092;8.516;2024-02-26T03:43:24;9.50;43.10
12156;DHT22;6141;49.092;8.516;2024-02-26T03:45:52;9.30;42.60
12156;DHT22;6141;49.092;8.516;2024-02-26T03:48:22;9.20;44.10
12156;DHT22;6141;49.092;8.516;2024-02-26T03:50:50;9.50;42.80
12156;DHT22;6141;49.092;8.516;2024-02-26T03:53:18;9.80;42.00
12156;DHT22;6141;49.092;8.516;2024-02-26T03:55:46;10.00;38.90
12156;DHT22;6141;49.092;8.516;2024-02-26T03:58:14;9.90;39.70
12156;DHT22;6141;49.092;8.516;2024-02-26T04:00:43;9.80;40.60
12156;DHT22;6141;49.092;8.516;2024-02-26T04:03:11;9.40;41.40
12156;DHT22;6141;49.092;8.516;2024-02-26T04:05:40;9.30;42.00
12156;DHT22;6141;49.092;8.516;2024-02-26T04:08:09;9.70;41.60
12156;DHT22;6141;49.092;8.516;2024-02-26T04:10:37;10.00;38.80
12156;DHT22;6141;49.092;8.516;2024-02-26T04:13:07;10.00;38.90
12156;DHT22;6141;49.092;8.516;2024-02-26T04:15:35;10.10;38.50
12156;DHT22;6141;49.092;8.516;2024-02-26T04:18:04;10.20;37.10
12156;DHT22;6141;49.092;8.516;2024-02-26T04:20:32;10.30;36.30
12156;DHT22;6141;49.092;8.516;2024-02-26T04:23:02;10.30;36.40
12156;DHT22;6141;49.092;8.516;2024-02-26T04:25:30;10.20;36.60
12156;DHT22;6141;49.092;8.516;2024-02-26T04:27:58;9.80;40.10
12156;DHT22;6141;49.092;8.516;2024-02-26T04:30:26;9.90;39.80
12156;DHT22;6141;49.092;8.516;2024-02-26T04:32:54;9.90;39.90
12156;DHT22;6141;49.092;8.516;2024-02-26T04:35:22;10.00;38.40
12156;DHT22;6141;49.092;8.516;2024-02-26T04:37:51;10.00;38.40
12156;DHT22;6141;49.092;8.516;2024-02-26T04:40:21;9.70;40.20
12156;DHT22;6141;49.092;8.516;2024-02-26T04:42:49;9.10;42.20
12156;DHT22;6141;49.092;8.516;2024-02-26T04:45:18;9.00;44.10
12156;DHT22;6141;49.092;8.516;2024-02-26T04:47:46;8.90;43.50
12156;DHT22;6141;49.092;8.516;2024-02-26T04:50:15;9.30;43.70
12156;DHT22;6141;49.092;8.516;2024-02-26T04:52:43;9.50;43.40
12156;DHT22;6141;49.092;8.516;2024-02-26T04:55:13;9.40;41.90
12156;DHT22;6141;49.092;8.516;2024-02-26T04:57:43;9.20;41.80
12156;DHT22;6141;49.092;8.516;2024-02-26T05:00:12;9.10;43.30
12156;DHT22;6141;49.092;8.516;2024-02-26T05:02:40;9.00;42.50
12156;DHT22;6141;49.092;8.516;2024-02-26T05:05:09;8.90;44.40
12156;DHT22;6141;49.092;8.516;2024-02-26T05:07:39;8.40;44.60
12156;DHT22;6141;49.092;8.516;2024-02-26T05:10:08;8.20;49.50
12156;DHT22;6141;49.092;8.516;2024-02-26T05:12:36;8.10;50.00
12156;DHT22;6141;49.092;8.516;2024-02-26T05:15:07;8.00;52.00
12156;DHT22;6141;49.092;8.516;2024-02-26T05:17:35;7.80;52.00
12156;DHT22;6141;49.092;8.516;2024-02-26T05:20:05;8.00;52.30
12156;DHT22;6141;49.092;8.516;2024-02-26T05:22:35;7.90;52.80
12156;DHT22;6141;49.092;8.516;2024-02-26T05:25:03;8.00;52.40
12156;DHT22;6141;49.092;8.516;2024-02-26T05:27:31;8.10;52.00
12156;DHT22;6141;49.092;8.516;2024-02-26T05:29:59;8.00;53.00
12156;DHT22;6141;49.092;8.516;2024-02-26T05:32:29;7.90;53.30
12156;DHT22;6141;49.092;8.516;2024-02-26T05:34:57;7.80;53.90
12156;DHT22;6141;49.092;8.516;2024-02-26T05:37:26;8.00;53.00
12156;DHT22;6141;49.092;8.516;2024-02-26T05:39:54;7.80;53.30
12156;DHT22;6141;49.092;8.516;2024-02-26T05:42:22;7.80;52.30
12156;DHT22;6141;49.092;8.516;2024-02-26T05:44:50;8.10;51.90
12156;DHT22;6141;49.092;8.516;2024-02-26T05:47:18;8.10;51.10
12156;DHT22;6141;49.092;8.516;2024-02-26T05:49:50;8.20;51.40
12156;DHT22;6141;49.092;8.516;2024-02-26T05:52:18;8.30;50.90
12156;DHT22;6141;49.092;8.516;2024-02-26T05:54:48;8.20;50.50
12156;DHT22;6141;49.092;8.516;2024-02-26T05:57:17;8.10;51.30
12156;DHT22;6141;49.092;8.516;2024-02-26T05:59:45;8.10;52.80
12156;DHT22;6141;49.092;8.516;2024-02-26T06:02:13;8.10;52.10
12156;DHT22;6141;49.092;8.516;2024-02-26T06:04:42;8.10;51.10
12156;DHT22;6141;49.092;8.516;2024-02-26T06:07:11;8.00;51.00
12156;DHT22;6141;49.092;8.516;2024-02-26T06:09:39;8.00;52.10
12156;DHT22;6141;49.092;8.516;2024-02-26T06:12:08;8.10;51.60
12156;DHT22;6141;49.092;8.516;2024-02-26T06:14:36;8.20;50.50
12156;DHT22;6141;49.092;8.516;2024-02-26T06:17:04;8.50;49.10
12156;DHT22;6141;49.092;8.516;2024-02-26T06:19:34;8.70;45.80
12156;DHT22;6141;49.092;8.516;2024-02-26T06:22:02;8.80;44.60
12156;DHT22;6141;49.092;8.516;2024-02-26T06:24:32;8.80;45.90
12156;DHT22;6141;49.092;8.516;2024-02-26T06:27:00;8.60;46.00
12156;DHT22;6141;49.092;8.516;2024-02-26T06:29:28;8.60;47.10
12156;DHT22;6141;49.092;8.516;2024-02-26T06:31:56;8.70;47.10
12156;DHT22;6141;49.092;8.516;2024-02-26T06:34:24;9.00;45.50
12156;DHT22;6141;49.092;8.516;2024-02-26T06:36:53;8.90;45.70
12156;DHT22;6141;49.092;8.516;2024-02-26T06:39:21;8.90;45.80
12156;DHT22;6141;49.092;8.516;2024-02-26T06:41:51;9.00;45.90
12156;DHT22;6141;49.092;8.516;2024-02-26T06:44:25;9.20;44.90
12156;DHT22;6141;49.092;8.516;2024-02-26T06:46:53;9.10;44.80
12156;DHT22;6141;49.092;8.516;2024-02-26T06:49:21;9.00;45.20
12156;DHT22;6141;49.092;8.516;2024-02-26T06:51:50;9.20;44.90
12156;DHT22;6141;49.092;8.516;2024-02-26T06:54:18;8.90;47.00
12156;DHT22;6141;49.092;8.516;2024-02-26T06:56:46;9.00;46.80
12156;DHT22;6141;49.092;8.516;2024-02-26T06:59:16;8.80;48.00
12156;DHT22;6141;49.092;8.516;2024-02-26T07:01:44;8.70;48.20
12156;DHT22;6141;49.092;8.516;2024-02-26T07:04:12;8.60;49.10
12156;DHT22;6141;49.092;8.516;2024-02-26T07:06:40;8.60;49.70
12156;DHT22;6141;49.092;8.516;2024-02-26T07:09:09;8.60;50.10
12156;DHT22;6141;49.092;8.516;2024-02-26T07:11:39;8.60;50.50
12156;DHT22;6141;49.092;8.516;2024-02-26T07:14:08;8.30;51.20
12156;DHT22;6141;49.092;8.516;2024-02-26T07:16:38;8.30;52.20
12156;DHT22;6141;49.092;8.516;2024-02-26T07:19:06;8.20;52.00
12156;DHT22;6141;49.092;8.516;2024-02-26T07:21:35;8.30;52.40
12156;DHT22;6141;49.092;8.516;2024-02-26T07:24:03;8.40;52.20
12156;DHT22;6141;49.092;8.516;2024-02-26T07:26:31;8.60;51.20
12156;DHT22;6141;49.092;8.516;2024-02-26T07:29:00;8.40;50.50
12156;DHT22;6141;49.092;8.516;2024-02-26T07:31:28;8.40;52.30
12156;DHT22;6141;49.092;8.516;2024-02-26T07:33:57;8.50;51.00
12156;DHT22;6141;49.092;8.516;2024-02-26T07:36:26;8.60;50.50
12156;DHT22;6141;49.092;8.516;2024-02-26T07:38:54;8.40;50.00
12156;DHT22;6141;49.092;8.516;2024-02-26T07:41:22;8.30;51.40
12156;DHT22;6141;49.092;8.516;2024-02-26T07:43:51;8.50;51.60
12156;DHT22;6141;49.092;8.516;2024-02-26T07:46:19;8.50;50.40
12156;DHT22;6141;49.092;8.516;2024-02-26T07:48:47;8.20;52.60
12156;DHT22;6141;49.092;8.516;2024-02-26T07:51:17;8.20;53.70
12156;DHT22;6141;49.092;8.516;2024-02-26T07:53:46;8.20;54.00
12156;DHT22;6141;49.092;8.516;2024-02-26T07:56:14;8.30;54.60
12156;DHT22;6141;49.092;8.516;2024-02-26T07:58:43;8.40;52.70
12156;DHT22;6141;49.092;8.516;2024-02-26T08:01:13;8.40;54.30
12156;DHT22;6141;49.092;8.516;2024-02-26T08:03:41;8.40;54.60
12156;DHT22;6141;49.092;8.516;2024-02-26T08:06:09;8.20;55.00
12156;DHT22;6141;49.092;8.516;2024-02-26T08:08:39;8.20;56.20
12156;DHT22;6141;49.092;8.516;2024-02-26T08:11:07;8.30;56.30
12156;DHT22;6141;49.092;8.516;2024-02-26T08:13:36;8.50;55.70
12156;DHT22;6141;49.092;8.516;2024-02-26T08:16:05;8.40;54.90
12156;DHT22;6141;49.092;8.516;2024-02-26T08:18:33;8.30;55.20
12156;DHT22;6141;49.092;8.516;2024-02-26T08:21:02;8.30;56.30
12156;DHT22;6141;49.092;8.516;2024-02-26T08:23:30;8.40;56.00
12156;DHT22;6141;49.092;8.516;2024-02-26T08:26:00;8.50;55.00
12156;DHT22;6141;49.092;8.516;2024-02-26T08:28:30;8.50;54.90
12156;DHT22;6141;49.092;8.516;2024-02-26T08:30:58;8.60;54.00
12156;DHT22;6141;49.092;8.516;2024-02-26T08:33:26;8.70;53.60
12156;DHT22;6141;49.092;8.516;2024-02-26T08:35:55;8.90;53.70
12156;DHT22;6141;49.092;8.516;2024-02-26T08:38:23;8.90;53.10
12156;DHT22;6141;49.092;8.516;2024-02-26T08:40:52;8.90;53.60
12156;DHT22;6141;49.092;8.516;2024-02-26T08:43:21;9.00;53.00
12156;DHT22;6141;49.092;8.516;2024-02-26T08:45:50;8.70;54.00
12156;DHT22;6141;49.092;8.516;2024-02-26T08:48:18;8.90;56.30
12156;DHT22;6141;49.092;8.516;2024-02-26T08:50:46;9.00;55.30
12156;DHT22;6141;49.092;8.516;2024-02-26T08:53:15;9.30;53.30
12156;DHT22;6141;49.092;8.516;2024-02-26T08:55:50;9.40;52.40
12156;DHT22;6141;49.092;8.516;2024-02-26T08:58:18;9.60;50.70
12156;DHT22;6141;49.092;8.516;2024-02-26T09:00:48;9.60;50.90
12156;DHT22;6141;49.092;8.516;2024-02-26T09:03:17;9.60;51.40
12156;DHT22;6141;49.092;8.516;2024-02-26T09:05:45;9.80;50.30
12156;DHT22;6141;49.092;8.516;2024-02-26T09:08:13;10.00;47.80
12156;DHT22;6141;49.092;8.516;2024-02-26T09:10:42;10.00;48.40
12156;DHT22;6141;49.092;8.516;2024-02-26T09:13:10;9.90;49.30
12156;DHT22;6141;49.092;8.516;2024-02-26T09:15:38;9.90;50.10
12156;DHT22;6141;49.092;8.516;2024-02-26T09:18:07;10.10;48.30
12156;DHT22;6141;49.092;8.516;2024-02-26T09:20:36;10.30;46.70
12156;DHT22;6141;49.092;8.516;2024-02-26T09:23:04;10.60;45.20
12156;DHT22;6141;49.092;8.516;2024-02-26T09:25:32;10.70;44.80
12156;DHT22;6141;49.092;8.516;2024-02-26T09:28:01;10.90;43.60
12156;DHT22;6141;49.092;8.516;2024-02-26T09:30:30;11.00;42.70
12156;DHT22;6141;49.092;8.516;2024-02-26T09:32:58;10.70;42.00
12156;DHT22;6141;49.092;8.516;2024-02-26T09:35:28;10.50;41.80
12156;DHT22;6141;49.092;8.516;2024-02-26T09:37:57;10.20;42.50
12156;DHT22;6141;49.092;8.516;2024-02-26T09:40:25;10.40;44.60
12156;DHT22;6141;49.092;8.516;2024-02-26T09:42:59;10.50;43.70
12156;DHT22;6141;49.092;8.516;2024-02-26T09:45:28;10.60;43.40
12156;DHT22;6141;49.092;8.516;2024-02-26T09:47:58;10.50;45.10
12156;DHT22;6141;49.092;8.516;2024-02-26T09:50:28;10.40;45.00
12156;DHT22;6141;49.092;8.516;2024-02-26T09:52:56;10.40;45.00
12156;DHT22;6141;49.092;8.516;2024-02-26T09:55:26;10.40;45.00
12156;DHT22;6141;49.092;8.516;2024-02-26T09:57:56;10.50;46.40
12156;DHT22;6141;49.092;8.516;2024-02-26T10:00:27;10.30;45.20
12156;DHT22;6141;49.092;8.516;2024-02-26T10:03:04;10.30;44.90
12156;DHT22;6141;49.092;8.516;2024-02-26T10:05:34;10.10;46.10
12156;DHT22;6141;49.092;8.516;2024-02-26T10:08:04;10.20;46.80
12156;DHT22;6141;49.092;8.516;2024-02-26T10:10:33;10.50;46.40
12156;DHT22;6141;49.092;8.516;2024-02-26T10:13:01;10.70;45.00
12156;DHT22;6141;49.092;8.516;2024-02-26T10:15:36;10.90;44.30
12156;DHT22;6141;49.092;8.516;2024-02-26T10:18:04;10.90;44.00
12156;DHT22;6141;49.092;8.516;2024-02-26T10:20:33;10.90;42.60
12156;DHT22;6141;49.092;8.516;2024-02-26T10:23:02;11.10;42.00
12156;DHT22;6141;49.092;8.516;2024-02-26T10:25:31;11.20;42.90
12156;DHT22;6141;49.092;8.516;2024-02-26T10:28:01;11.00;43.70
12156;DHT22;6141;49.092;8.516;2024-02-26T10:30:30;10.80;44.40
12156;DHT22;6141;49.092;8.516;2024-02-26T10:32:59;10.40;45.70
12156;DHT22;6141;49.092;8.516;2024-02-26T10:35:27;10.50;45.80
12156;DHT22;6141;49.092;8.516;2024-02-26T10:37:57;10.50;45.10
12156;DHT22;6141;49.092;8.516;2024-02-26T10:40:25;10.50;46.70
12156;DHT22;6141;49.092;8.516;2024-02-26T10:42:53;10.60;45.20
12156;DHT22;6141;49.092;8.516;2024-02-26T10:45:22;10.60;46.00
12156;DHT22;6141;49.092;8.516;2024-02-26T10:47:50;10.80;44.60
12156;DHT22;6141;49.092;8.516;2024-02-26T10:50:19;10.90;44.10
12156;DHT22;6141;49.092;8.516;2024-02-26T10:52:47;11.10;45.70
12156;DHT22;6141;49.092;8.516;2024-02-26T10:55:18;11.00;41.40
12156;DHT22;6141;49.092;8.516;2024-02-26T10:57:52;11.10;42.90
12156;DHT22;6141;49.092;8.516;2024-02-26T11:00:20;11.10;44.20
12156;DHT22;6141;49.092;8.516;2024-02-26T11:02:48;11.10;43.30
12156;DHT22;6141;49.092;8.516;2024-02-26T11:05:17;11.30;42.90
12156;DHT22;6141;49.092;8.516;2024-02-26T11:07:45;11.30;42.00
12156;DHT22;6141;49.092;8.516;2024-02-26T11:10:15;11.40;42.00
12156;DHT22;6141;49.092;8.516;2024-02-26T11:12:46;11.30;39.60
12156;DHT22;6141;49.092;8.516;2024-02-26T11:15:15;11.40;37.30
12156;DHT22;6141;49.092;8.516;2024-02-26T11:17:46;11.40;36.80
12156;DHT22;6141;49.092;8.516;2024-02-26T11:20:16;11.60;39.20
12156;DHT22;6141;49.092;8.516;2024-02-26T11:22:45;12.00;37.30
12156;DHT22;6141;49.092;8.516;2024-02-26T11:25:13;12.30;38.10
12156;DHT22;6141;49.092;8.516;2024-02-26T11:27:49;12.60;34.60
12156;DHT22;6141;49.092;8.516;2024-02-26T11:30:18;13.00;35.00
12156;DHT22;6141;49.092;8.516;2024-02-26T11:32:47;13.30;30.80
12156;DHT22;6141;49.092;8.516;2024-02-26T11:35:16;13.40;30.10
12156;DHT22;6141;49.092;8.516;2024-02-26T11:37:53;13.60;28.30
12156;DHT22;6141;49.092;8.516;2024-02-26T11:40:24;13.80;29.60
12156;DHT22;6141;49.092;8.516;2024-02-26T11:42:54;14.00;28.30
12156;DHT22;6141;49.092;8.516;2024-02-26T11:45:47;14.00;26.30
12156;DHT22;6141;49.092;8.516;2024-02-26T11:48:20;14.20;27.50
12156;DHT22;6141;49.092;8.516;2024-02-26T11:50:50;14.10;26.80
12156;DHT22;6141;49.092;8.516;2024-02-26T11:53:20;14.40;25.00
12156;DHT22;6141;49.092;8.516;2024-02-26T11:55:49;14.40;23.80
12156;DHT22;6141;49.092;8.516;2024-02-26T11:58:40;14.10;22.80
12156;DHT22;6141;49.092;8.516;2024-02-26T12:01:36;13.80;22.90
12156;DHT22;6141;49.092;8.516;2024-02-26T12:04:06;13.80;24.50
12156;DHT22;6141;49.092;8.516;2024-02-26T12:06:54;13.80;24.50
12156;DHT22;6141;49.092;8.516;2024-02-26T12:09:37;14.20;24.80
12156;DHT22;6141;49.092;8.516;2024-02-26T12:12:07;14.60;23.10
12156;DHT22;6141;49.092;8.516;2024-02-26T12:14:39;14.70;22.50
12156;DHT22;6141;49.092;8.516;2024-02-26T12:17:19;14.90;24.40
12156;DHT22;6141;49.092;8.516;2024-02-26T12:19:48;15.20;24.40
12156;DHT22;6141;49.092;8.516;2024-02-26T12:22:17;15.40;22.00
12156;DHT22;6141;49.092;8.516;2024-02-26T12:24:45;15.70;23.10
12156;DHT22;6141;49.092;8.516;2024-02-26T12:27:14;15.70;23.00
12156;DHT22;6141;49.092;8.516;2024-02-26T12:29:44;15.80;20.80
12156;DHT22;6141;49.092;8.516;2024-02-26T12:32:12;16.00;21.10
12156;DHT22;6141;49.092;8.516;2024-02-26T12:34:40;15.80;20.60
12156;DHT22;6141;49.092;8.516;2024-02-26T12:37:09;15.50;19.40
12156;DHT22;6141;49.092;8.516;2024-02-26T12:39:38;15.50;22.60
12156;DHT22;6141;49.092;8.516;2024-02-26T12:42:06;15.70;22.40
12156;DHT22;6141;49.092;8.516;2024-02-26T12:44:35;15.70;22.70
12156;DHT22;6141;49.092;8.516;2024-02-26T12:47:05;15.60;23.10
12156;DHT22;6141;49.092;8.516;2024-02-26T12:49:33;15.60;22.10
12156;DHT22;6141;49.092;8.516;2024-02-26T12:52:02;15.70;22.40
12156;DHT22;6141;49.092;8.516;2024-02-26T12:54:31;15.60;23.20
12156;DHT22;6141;49.092;8.516;2024-02-26T12:57:02;15.60;22.40
12156;DHT22;6141;49.092;8.516;2024-02-26T12:59:31;15.50;23.50
12156;DHT22;6141;49.092;8.516;2024-02-26T13:02:00;15.60;21.90
12156;DHT22;6141;49.092;8.516;2024-02-26T13:04:33;15.50;21.10
12156;DHT22;6141;49.092;8.516;2024-02-26T13:07:03;15.30;22.60
12156;DHT22;6141;49.092;8.516;2024-02-26T13:09:33;15.40;23.30
12156;DHT22;6141;49.092;8.516;2024-02-26T13:12:04;15.40;21.60
12156;DHT22;6141;49.092;8.516;2024-02-26T13:14:33;15.60;22.20
12156;DHT22;6141;49.092;8.516;2024-02-26T13:17:02;15.70;21.00
12156;DHT22;6141;49.092;8.516;2024-02-26T13:19:32;15.70;21.50
12156;DHT22;6141;49.092;8.516;2024-02-26T13:22:05;15.70;20.90
12156;DHT22;6141;49.092;8.516;2024-02-26T13:24:33;15.70;20.80
12156;DHT22;6141;49.092;8.516;2024-02-26T13:27:02;15.60;20.80
12156;DHT22;6141;49.092;8.516;2024-02-26T13:29:33;15.50;21.40
12156;DHT22;6141;49.092;8.516;2024-02-26T13:32:01;15.60;21.90
12156;DHT22;6141;49.092;8.516;2024-02-26T13:34:29;15.60;21.60
12156;DHT22;6141;49.092;8.516;2024-02-26T13:36:59;15.70;22.30
12156;DHT22;6141;49.092;8.516;2024-02-26T13:39:28;15.50;21.60
12156;DHT22;6141;49.092;8.516;2024-02-26T13:41:57;15.50;23.30
12156;DHT22;6141;49.092;8.516;2024-02-26T13:44:26;15.60;23.30
12156;DHT22;6141;49.092;8.516;2024-02-26T13:46:54;15.60;23.00
12156;DHT22;6141;49.092;8.516;2024-02-26T13:49:22;15.80;23.00
12156;DHT22;6141;49.092;8.516;2024-02-26T13:51:51;15.70;22.90
12156;DHT22;6141;49.092;8.516;2024-02-26T13:54:20;15.50;21.70
12156;DHT22;6141;49.092;8.516;2024-02-26T13:56:49;15.50;22.00
12156;DHT22;6141;49.092;8.516;2024-02-26T13:59:17;15.30;22.10
12156;DHT22;6141;49.092;8.516;2024-02-26T14:01:45;15.10;23.10
12156;DHT22;6141;49.092;8.516;2024-02-26T14:04:13;15.00;23.70
12156;DHT22;6141;49.092;8.516;2024-02-26T14:06:41;15.00;23.70
12156;DHT22;6141;49.092;8.516;2024-02-26T14:09:10;14.90;21.50
12156;DHT22;6141;49.092;8.516;2024-02-26T14:11:39;14.90;23.70
12156;DHT22;6141;49.092;8.516;2024-02-26T14:14:09;14.90;24.20
12156;DHT22;6141;49.092;8.516;2024-02-26T14:16:37;15.00;23.90
12156;DHT22;6141;49.092;8.516;2024-02-26T14:19:05;15.30;23.70
12156;DHT22;6141;49.092;8.516;2024-02-26T14:21:34;15.70;22.20
12156;DHT22;6141;49.092;8.516;2024-02-26T14:24:03;16.10;21.10
12156;DHT22;6141;49.092;8.516;2024-02-26T14:26:32;16.00;21.00
12156;DHT22;6141;49.092;8.516;2024-02-26T14:29:01;16.00;20.40
12156;DHT22;6141;49.092;8.516;2024-02-26T14:31:30;15.90;20.00
12156;DHT22;6141;49.092;8.516;2024-02-26T14:33:58;15.60;21.50
12156;DHT22;6141;49.092;8.516;2024-02-26T14:36:27;15.80;21.70
12156;DHT22;6141;49.092;8.516;2024-02-26T14:38:56;16.10;19.20
12156;DHT22;6141;49.092;8.516;2024-02-26T14:41:24;15.80;20.10
12156;DHT22;6141;49.092;8.516;2024-02-26T14:43:52;15.80;20.20
12156;DHT22;6141;49.092;8.516;2024-02-26T14:46:40;15.90;20.40
12156;DHT22;6141;49.092;8.516;2024-02-26T14:49:08;15.90;20.10
12156;DHT22;6141;49.092;8.516;2024-02-26T14:51:40;16.00;19.80
12156;DHT22;6141;49.092;8.516;2024-02-26T14:54:11;16.00;19.90
12156;DHT22;6141;49.092;8.516;2024-02-26T14:56:40;15.90;19.40
12156;DHT22;6141;49.092;8.516;2024-02-26T14:59:10;15.60;18.10
12156;DHT22;6141;49.092;8.516;2024-02-26T15:01:58;15.50;19.00
12156;DHT22;6141;49.092;8.516;2024-02-26T15:04:45;15.60;19.80
12156;DHT22;6141;49.092;8.516;2024-02-26T15:07:34;15.80;20.20
12156;DHT22;6141;49.092;8.516;2024-02-26T15:10:23;16.00;18.30
12156;DHT22;6141;49.092;8.516;2024-02-26T15:13:12;15.90;18.40
12156;DHT22;6141;49.092;8.516;2024-02-26T15:16:00;15.90;19.30
12156;DHT22;6141;49.092;8.516;2024-02-26T15:18:50;15.90;17.70
12156;DHT22;6141;49.092;8.516;2024-02-26T15:21:43;16.10;18.40
12156;DHT22;6141;49.092;8.516;2024-02-26T15:24:31;15.90;18.20
12156;DHT22;6141;49.092;8.516;2024-02-26T15:27:20;15.90;18.70
12156;DHT22;6141;49.092;8.516;2024-02-26T15:30:09;15.70;19.00
12156;DHT22;6141;49.092;8.516;2024-02-26T15:32:58;15.70;19.70
12156;DHT22;6141;49.092;8.516;2024-02-26T15:35:48;15.80;20.00
12156;DHT22;6141;49.092;8.516;2024-02-26T15:38:36;16.00;18.30
12156;DHT22;6141;49.092;8.516;2024-02-26T15:41:25;16.10;18.60
12156;DHT22;6141;49.092;8.516;2024-02-26T15:44:14;16.20;16.40
12156;DHT22;6141;49.092;8.516;2024-02-26T15:47:02;16.00;18.60
12156;DHT22;6141;49.092;8.516;2024-02-26T15:49:52;15.90;18.80
12156;DHT22;6141;49.092;8.516;2024-02-26T15:52:42;15.60;19.00
12156;DHT22;6141;49.092;8.516;2024-02-26T15:55:31;15.60;17.90
12156;DHT22;6141;49.092;8.516;2024-02-26T15:58:19;15.60;19.40
12156;DHT22;6141;49.092;8.516;2024-02-26T16:01:08;15.50;18.70
12156;DHT22;6141;49.092;8.516;2024-02-26T16:04:09;15.30;19.70
12156;DHT22;6141;49.092;8.516;2024-02-26T16:07:00;15.20;20.20
12156;DHT22;6141;49.092;8.516;2024-02-26T16:09:53;15.10;20.40
12156;DHT22;6141;49.092;8.516;2024-02-26T16:12:43;15.10;20.80
12156;DHT22;6141;49.092;8.516;2024-02-26T16:15:32;14.90;20.20